Terminal Aerodrome Forecast
Issued by NWS Detroit/Pontiac, MI

Home | Current Version | Previous Version | Text Only | Print | Product List | Glossary On
Versions: 1 2 3 4 5 6 7 8 9 10 11 12 13 14 15 16 17 18 19 20 21 22 23 24
000
FTUS43 KDTX 241720
TAFDTW
TAF
KDTW 241720Z 2418/2524 22013G22KT P6SM SCT120 SCT200
     FM242300 22012G20KT P6SM SCT120 SCT200
     FM250300 20011KT P6SM BKN150
     FM250900 23008KT P6SM SCT028 BKN035 OVC100
     FM251300 28010KT P6SM SCT018 BKN025
     FM251800 29012KT P6SM SCT028 BKN035=

USA.gov is the U.S. government's official web portal to all federal, state and local government web resources and services.